2D1 weather

Barber Airport
Alliance, Ohio, United States

Public forecast

Using degrees Fahrenheit for public forecast. Weather courtesy of forecast.io.

Closest aviation weather report (METAR) to Barber Airport

Closest report is Akron Canton Regional Airport, 15.9 nm (29.4 km) WSW. Retrieved 2020/06/01 15:51 UTC (31 minutes ago):

KCAK 011551Z 25009KT 10SM FEW250 19/04 A3032 RMK AO2 SLP267 T01890039

Closest aviation forecast (TAF) to Barber Airport

Closest forecast is Akron Canton Regional Airport, 15.9 nm (29.4 km) WSW. Retrieved 2020/06/01 12:33 UTC (4 hours ago):

TAF KCAK 011130Z 0112/0212 VRB03KT P6SM SKC FM012100 24008KT P6SM SCT250 FM020500 20007KT P6SM VCSH BKN080